Terminal Aerodrome Forecast
Issued by NWS

Home | Current Version | Previous Version | Graphics & Text | Print | Product List | Glossary On
Versions: 1 2 3 4 5 6 7 8 9 10 11 12 13 14
000
FTUS43 KGRB 161733
TAFMTW
TAF
KMTW 161733Z 1618/1718 15008KT P6SM BKN120
     FM170000 15005KT P6SM BKN120
     FM170600 14005KT 6SM BR BKN120
     FM171500 17007KT P6SM SCT120=

USA.gov is the U.S. government's official web portal to all federal, state and local government web resources and services.